Kinder, Louisiana
Current Conditions -  °F | °C
As of 8:35 PM on Wednesday 22 Oct 2014 (Local Time) from K3R7 Reporting Station
Clear Clear  
Wind Chill: 65°   Ceiling: Unl
Heat Index: 65°   Visibility: 10mi
Dew Point: 54°   Wind: 5mph
Humidity: 69%   Direction: 10°N
Pressure: 30.07"   Gusts: NA
Location:  30.49°N, 92.85°W
Report Text: K3R7 230135Z AUTO 01004KT 10SM CLR 18/12 A3007 RMK AO2 T01810124
Loading
Personal Weather Stations






























Interactive Weather Map
Tropical Storm Tracking
New forecast layout! Learn more

10-Day Weather Forecast

Advertisements
Track Severe Weather on mobile